Flight Track Log - Related Links

Times and Time Zones

All times are in EDT time to prevent confusion due to time zone crossing. See the DAL268 flight status page for this flight to view local times or setup timezone preferences in your user account.

Time Position Orientation Groundspeed Altitude Reporting Facility
EDT Latitude Longitude Course Direction KTS MPH feet Rate Location/Type
Thu 02:31:30 PM 37.6090 -122.3790 22° Northeast 72 83  Level FlightAware ADS-B
Thu 02:31:47 PM 37.6170 -122.3740 26° Northeast 150 173 973 Level FlightAware ADS-B
Thu 02:32:07 PM 37.6319 -122.3640 28° Northeast 171 197 600 2,129 Climbing FlightAware ADS-B
Thu 02:32:18 PM 37.6387 -122.3570 39° Northeast 173 199 1,100 2,571 Climbing FlightAware ADS-B
Thu 02:32:21 PM 37.6404 -122.3550 43° Northeast 177 204 1,200 1,600 Climbing FlightAware ADS-B
Thu 02:32:33 PM 37.6464 -122.3450 53° Northeast 190 219 1,500 1,429 Climbing FlightAware ADS-B
Thu 02:32:42 PM 37.6516 -122.3370 51° Northeast 201 231 1,700 1,364 Climbing FlightAware ADS-B
Thu 02:32:55 PM 37.6596 -122.3250 50° Northeast 220 253 2,000 1,500 Climbing FlightAware ADS-B
Thu 02:33:10 PM 37.6704 -122.3080 51° Northeast 241 277 2,400 1,600 Climbing FlightAware ADS-B
Thu 02:33:25 PM 37.6821 -122.2920 47° Northeast 262 302 2,800 1,846 Climbing FlightAware ADS-B
Thu 02:33:36 PM 37.6903 -122.2800 49° Northeast 269 310 3,200 2,400 Climbing FlightAware ADS-B
Thu 02:33:40 PM 37.6937 -122.2760 43° Northeast 269 310 3,400 2,857 Climbing FlightAware ADS-B
Thu 02:33:57 PM 37.7098 -122.2570 43° Northeast 274 315 4,200 3,130 Climbing FlightAware ADS-B
Thu 02:34:03 PM 37.7164 -122.2500 40° Northeast 275 316 4,600 3,273 Climbing FlightAware ADS-B
Thu 02:34:19 PM 37.7323 -122.2350 37° Northeast 276 318 5,400 2,800 Climbing FlightAware ADS-B
Thu 02:34:48 PM 37.7623 -122.2070 36° Northeast 285 328 6,700 2,591 Climbing FlightAware ADS-B
Thu 02:35:03 PM 37.7786 -122.1920 36° Northeast 291 335 7,300 2,516 Climbing FlightAware ADS-B
Thu 02:35:19 PM 37.7954 -122.1760 37° Northeast 294 338 8,000 2,600 Climbing FlightAware ADS-B
Thu 02:35:33 PM 37.8111 -122.1610 37° Northeast 301 346 8,600 2,483 Climbing FlightAware ADS-B
Thu 02:35:48 PM 37.8283 -122.1440 38° Northeast 304 350 9,200 2,516 Climbing FlightAware ADS-B
Thu 02:36:04 PM 37.8461 -122.1270 37° Northeast 307 353 9,900 1,957 Climbing FlightAware ADS-B
Thu 02:36:34 PM 37.8816 -122.0930 37° Northeast 333 383 10,700 1,180 Climbing FlightAware ADS-B
Thu 02:37:05 PM 37.9222 -122.0540 37° Northeast 367 422 11,100 885 Climbing FlightAware ADS-B
Thu 02:37:35 PM 37.9648 -122.0140 37° Northeast 393 452 11,600 1,548 Climbing FlightAware ADS-B
Thu 02:38:07 PM 38.0126 -121.9680 37° Northeast 411 473 12,700 2,169 Climbing FlightAware ADS-B
Thu 02:38:58 PM 38.0900 -121.8930 37° Northeast 421 484 14,600 2,530 Climbing FlightAware ADS-B
Thu 02:39:30 PM 38.1390 -121.8470 36° Northeast 411 473 16,200 1,853 Climbing FlightAware ADS-B
Thu 02:40:06 PM 38.1960 -121.7920 37° Northeast 441 507 16,700 1,297 Climbing FlightAware ADS-B
Thu 02:40:44 PM 38.2600 -121.7300 37° Northeast 453 521 17,800 1,714 Climbing FlightAware ADS-B
Thu 02:41:16 PM 38.3120 -121.6790 38° Northeast 460 529 18,700 1,714 Climbing FlightAware ADS-B
Thu 02:41:54 PM 38.3780 -121.6150 37° Northeast 469 540 19,800 1,629 Climbing FlightAware ADS-B
Thu 02:42:26 PM 38.4320 -121.5590 39° Northeast 476 548 20,600 1,588 Climbing FlightAware ADS-B
Thu 02:43:02 PM 38.4850 -121.4820 49° Northeast 482 555 21,600 1,543 Climbing FlightAware ADS-B
Thu 02:43:36 PM 38.5310 -121.4050 53° Northeast 490 564 22,400 1,371 Climbing FlightAware ADS-B
Thu 02:44:12 PM 38.5797 -121.3190 54° Northeast 497 572 23,200 1,352 Climbing FlightAware ADS-B
Thu 02:44:47 PM 38.6260 -121.2390 53° Northeast 504 580 24,000 1,418 Climbing FlightAware ADS-B
Thu 02:45:07 PM 38.6561 -121.1870 53° Northeast 499 574 24,500 1,391 Climbing FlightAware ADS-B
Thu 02:45:56 PM 38.7230 -121.0710 54° Northeast 514 592 25,600 1,259 Climbing FlightAware ADS-B
Thu 02:46:28 PM 38.7700 -120.9900 53° Northeast 521 600 26,200 1,114 Climbing FlightAware ADS-B
Thu 02:47:06 PM 38.8250 -120.8950 53° Northeast 528 608 26,900 1,026 Climbing FlightAware ADS-B
Thu 02:47:44 PM 38.8790 -120.8000 54° Northeast 533 613 27,500 1,083 Climbing FlightAware ADS-B
Thu 02:48:18 PM 38.9310 -120.7120 53° Northeast 536 617 28,200 1,219 Climbing FlightAware ADS-B
Thu 02:48:48 PM 38.9740 -120.6360 54° Northeast 536 617 28,800 1,457 Climbing FlightAware ADS-B
Thu 02:49:28 PM 39.0330 -120.5350 53° Northeast 529 609 29,900 1,500 Climbing FlightAware ADS-B
Thu 02:50:04 PM 39.0820 -120.4480 54° Northeast 527 606 30,700 1,412 Climbing FlightAware ADS-B
Thu 02:50:36 PM 39.1310 -120.3640 53° Northeast 522 601 31,500 1,548 Climbing FlightAware ADS-B
Thu 02:51:06 PM 39.1720 -120.2920 54° Northeast 517 595 32,300 1,391 Climbing FlightAware ADS-B
Thu 02:51:45 PM 39.2290 -120.1910 54° Northeast 515 593 33,100 1,169 Climbing FlightAware ADS-B
Thu 02:52:23 PM 39.2830 -120.0970 53° Northeast 514 592 33,800 1,054 Climbing FlightAware ADS-B
Thu 02:52:59 PM 39.3320 -120.0090 54° Northeast 512 589 34,400 1,059 Climbing FlightAware ADS-B
Thu 02:53:31 PM 39.3770 -119.9310 53° Northeast 511 588 35,000 514 Climbing FlightAware ADS-B
Thu 02:54:09 PM 39.4300 -119.8360 54° Northeast 515 593 35,000  Level FlightAware ADS-B
Thu 02:54:33 PM 39.4640 -119.7760 54° Northeast 517 595 35,000  Level FlightAware ADS-B
Thu 02:55:13 PM 39.5210 -119.6740 54° Northeast 519 597 35,000  Level FlightAware ADS-B
Thu 02:55:43 PM 39.5630 -119.6000 54° Northeast 517 595 35,000  Level FlightAware ADS-B
Thu 02:56:21 PM 39.6160 -119.5040 54° Northeast 517 595 35,000  Level FlightAware ADS-B
Thu 02:56:57 PM 39.6670 -119.4130 54° Northeast 518 596 35,000  Level FlightAware ADS-B
Thu 02:57:31 PM 39.7140 -119.3280 54° Northeast 517 595 35,000  Level FlightAware ADS-B
Thu 02:58:06 PM 39.7610 -119.2420 55° Northeast 516 594 35,000  Level FlightAware ADS-B
Thu 02:58:43 PM 39.8140 -119.1470 54° Northeast 516 594 35,000  Level FlightAware ADS-B
Thu 02:59:15 PM 39.8570 -119.0700 54° Northeast 513 590 35,000  Level FlightAware ADS-B
Thu 02:59:51 PM 39.9070 -118.9780 55° Northeast 515 593 35,000  Level FlightAware ADS-B
Thu 03:00:27 PM 39.9570 -118.8860 55° Northeast 515 593 35,000  Level FlightAware ADS-B
Thu 03:01:00 PM 40.0010 -118.8050 55° Northeast 515 593 35,000  Level FlightAware ADS-B
Thu 03:01:37 PM 40.0520 -118.7120 54° Northeast 510 587 35,000  Level FlightAware ADS-B
Thu 03:02:09 PM 40.0960 -118.6310 55° Northeast 509 586 35,000  Level FlightAware ADS-B
Thu 03:02:46 PM 40.1350 -118.5370 61° Northeast 498 573 35,000  Level FlightAware ADS-B
Thu 03:03:19 PM 40.1640 -118.4390 69° East 493 567 35,000  Level FlightAware ADS-B
Thu 03:03:55 PM 40.1920 -118.3370 70° East 493 567 35,000  Level FlightAware ADS-B
Thu 03:04:27 PM 40.2150 -118.2510 71° East 492 566 35,000  Level FlightAware ADS-B
Thu 03:05:01 PM 40.2410 -118.1560 70° East 490 564 35,000  Level FlightAware ADS-B
Thu 03:05:43 PM 40.2730 -118.0380 70° East 488 562 35,000  Level FlightAware ADS-B
Thu 03:06:21 PM 40.2990 -117.9440 70° East 488 562 35,000  Level FlightAware ADS-B
Thu 03:06:57 PM 40.3220 -117.8590 70° East 488 562 35,000  Level FlightAware ADS-B
Thu 03:07:33 PM 40.3460 -117.7740 70° East 488 562 35,000  Level FlightAware ADS-B
Thu 03:08:11 PM 40.3710 -117.6840 70° East 488 562 35,000  Level FlightAware ADS-B
Thu 03:08:47 PM 40.3950 -117.5990 70° East 488 562 35,000  Level FlightAware ADS-B
Thu 03:09:23 PM 40.4180 -117.5130 71° East 488 562 35,000  Level FlightAware ADS-B
Thu 03:09:59 PM 40.4420 -117.4280 70° East 488 562 35,000  Level FlightAware ADS-B
Thu 03:10:35 PM 40.4650 -117.3430 70° East 488 562 35,000  Level FlightAware ADS-B
Thu 03:11:12 PM 40.4900 -117.2550 69° East 488 562 35,000  Level FlightAware ADS-B
Thu 03:11:49 PM 40.5140 -117.1670 70° East 488 562 35,000  Level FlightAware ADS-B
Thu 03:12:25 PM 40.5380 -117.0820 70° East 488 562 35,000  Level FlightAware ADS-B
Thu 03:13:01 PM 40.5610 -116.9960 71° East 488 562 35,000  Level FlightAware ADS-B
Thu 03:13:38 PM 40.5860 -116.9090 69° East 488 562 35,000  Level FlightAware ADS-B
Thu 03:14:14 PM 40.6090 -116.8230 71° East 488 562 35,000  Level FlightAware ADS-B
Thu 03:14:49 PM 40.6320 -116.7400 70° East 488 562 35,000  Level FlightAware ADS-B
Thu 03:15:35 PM 40.6620 -116.6310 70° East 488 562 35,000  Level FlightAware ADS-B
Thu 03:17:09 PM 40.7950 -116.0840 72° East 500 575 35,000  Level FlightAware ADS-B
Thu 03:17:39 PM 40.8182 -115.9970 71° East 503 579 35,000  Level FlightAware ADS-B
Thu 03:18:13 PM 40.8440 -115.8990 71° East 505 581 35,000  Level FlightAware ADS-B
Thu 03:18:43 PM 40.8671 -115.8110 71° East 500 575 35,000  Level FlightAware ADS-B
Thu 03:19:40 PM 40.9097 -115.6480 71° East 499 574 35,000  Level FlightAware ADS-B
Thu 03:20:39 PM 40.9541 -115.4760 71° East 500 575 35,000  Level FlightAware ADS-B
Thu 03:21:35 PM 40.9962 -115.3130 71° East 500 575 35,000  Level FlightAware ADS-B
Thu 03:22:06 PM 41.0193 -115.2230 71° East 509 586 35,000  Level FlightAware ADS-B
Thu 03:22:36 PM 41.0422 -115.1330 71° East 508 585 35,000  Level FlightAware ADS-B
Thu 03:23:06 PM 41.0648 -115.0450 71° East 508 585 35,000  Level FlightAware ADS-B
Thu 03:23:37 PM 41.0874 -114.9550 72° East 508 585 35,000  Level FlightAware ADS-B
Thu 03:24:07 PM 41.1100 -114.8660 71° East 509 586 35,000  Level FlightAware ADS-B
Thu 03:24:37 PM 41.1325 -114.7760 72° East 508 585 35,000  Level FlightAware ADS-B
Thu 03:25:15 PM 41.1601 -114.6660 72° East 507 583 35,000  Level FlightAware ADS-B
Thu 03:25:45 PM 41.1824 -114.5770 72° East 507 583 35,000  Level FlightAware ADS-B
Thu 03:26:16 PM 41.2047 -114.4870 72° East 508 585 35,000  Level FlightAware ADS-B
Thu 03:26:46 PM 41.2267 -114.3980 72° East 507 583 35,000  Level FlightAware ADS-B
Thu 03:27:17 PM 41.2496 -114.3060 72° East 506 582 35,000  Level FlightAware ADS-B
Thu 03:27:51 PM 41.2742 -114.2050 72° East 508 585 35,000  Level FlightAware ADS-B
Thu 03:28:26 PM 41.2994 -114.1020 72° East 509 586 35,000  Level FlightAware ADS-B
Thu 03:28:59 PM 41.3231 -114.0050 72° East 508 585 35,000  Level FlightAware ADS-B
Thu 03:29:29 PM 41.3453 -113.9130 72° East 507 583 35,000  Level FlightAware ADS-B
Thu 03:29:55 PM 41.3614 -113.8360 74° East 505 581 35,000  Level FlightAware ADS-B
Thu 03:30:25 PM 41.3755 -113.7450 78° East 504 580 35,000  Level FlightAware ADS-B
Thu 03:30:56 PM 41.3878 -113.6510 80° East 503 579 35,000  Level FlightAware ADS-B
Thu 03:31:35 PM 41.4028 -113.5330 80° East 503 579 35,000  Level FlightAware ADS-B
Thu 03:32:05 PM 41.4143 -113.4410 81° East 504 580 35,000  Level FlightAware ADS-B
Thu 03:32:35 PM 41.4259 -113.3490 80° East 504 580 35,000  Level FlightAware ADS-B
Thu 03:33:08 PM 41.4384 -113.2490 81° East 503 579 35,000  Level FlightAware ADS-B
Thu 03:33:38 PM 41.4499 -113.1570 81° East 503 579 35,000  Level FlightAware ADS-B
Thu 03:34:09 PM 41.4614 -113.0640 81° East 503 579 35,000  Level FlightAware ADS-B
Thu 03:34:44 PM 41.4747 -112.9550 81° East 504 580 35,000  Level FlightAware ADS-B
Thu 03:35:36 PM 41.4940 -112.7980 81° East 500 575 35,000  Level FlightAware ADS-B
Thu 03:35:44 PM 41.4970 -112.7720 81° East 503 579 35,000  Level FlightAware ADS-B
Thu 03:36:16 PM 41.5084 -112.6760 81° East 501 577 35,000  Level FlightAware ADS-B
Thu 03:36:47 PM 41.5198 -112.5810 81° East 503 579 35,000  Level FlightAware ADS-B
Thu 03:37:21 PM 41.5321 -112.4770 81° East 505 581 35,000  Level FlightAware ADS-B
Thu 03:37:52 PM 41.5423 -112.3830 82° East 507 583 35,000  Level FlightAware ADS-B
Thu 03:38:26 PM 41.5533 -112.2770 82° East 508 585 35,000  Level FlightAware ADS-B
Thu 03:38:57 PM 41.5634 -112.1790 82° East 509 586 35,000  Level FlightAware ADS-B
Thu 03:39:28 PM 41.5731 -112.0840 82° East 511 588 35,000  Level FlightAware ADS-B
Thu 03:40:00 PM 41.5835 -111.9830 82° East 511 588 35,000  Level FlightAware ADS-B
Thu 03:40:33 PM 41.5939 -111.8820 82° East 512 589 35,000  Level FlightAware ADS-B
Thu 03:41:03 PM 41.6034 -111.7880 82° East 514 592 35,000  Level FlightAware ADS-B
Thu 03:41:36 PM 41.6140 -111.6830 82° East 516 594 35,000  Level FlightAware ADS-B
Thu 03:42:06 PM 41.6234 -111.5880 82° East 516 594 35,000  Level FlightAware ADS-B
Thu 03:42:36 PM 41.6327 -111.4940 82° East 514 592 35,000  Level FlightAware ADS-B
Thu 03:43:07 PM 41.6421 -111.3980 83° East 511 588 35,000  Level FlightAware ADS-B
Thu 03:43:37 PM 41.6512 -111.3040 83° East 508 585 35,000  Level FlightAware ADS-B
Thu 03:44:07 PM 41.6602 -111.2100 83° East 508 585 35,000  Level FlightAware ADS-B
Thu 03:44:38 PM 41.6692 -111.1150 83° East 509 586 35,000  Level FlightAware ADS-B
Thu 03:45:08 PM 41.6781 -111.0210 83° East 507 583 35,000  Level FlightAware ADS-B
Thu 03:45:40 PM 41.6871 -110.9240 83° East 508 585 35,000  Level FlightAware ADS-B
Thu 03:46:10 PM 41.6960 -110.8280 83° East 511 588 35,000  Level FlightAware ADS-B
Thu 03:46:44 PM 41.7056 -110.7220 83° East 512 589 35,000  Level FlightAware ADS-B
Thu 03:47:46 PM 41.7197 -110.5556 83° East 509 586 35,000  Level Salt Lake Center
Thu 03:48:48 PM 41.7392 -110.3472 83° East 507 583 35,000  Level Salt Lake Center
Thu 03:49:50 PM 41.7547 -110.1681 83° East 506 582 35,000  Level Salt Lake Center
Thu 03:50:52 PM 41.7722 -109.9600 83° East 503 579 35,000  Level Salt Lake Center
Thu 03:51:55 PM 41.7872 -109.7806 84° East 504 580 35,000  Level Salt Lake Center
Thu 03:52:57 PM 41.8025 -109.6006 83° East 508 585 35,000  Level Salt Lake Center
Thu 03:53:59 PM 41.8197 -109.3900 84° East 506 582 35,000  Level Salt Lake Center
Thu 03:55:01 PM 41.8342 -109.2100 84° East 505 581 35,000  Level Salt Lake Center
Thu 03:56:03 PM 41.8489 -109.0008 85° East 502 578 35,000  Level Salt Lake Center
Thu 03:57:05 PM 41.8631 -108.8194 84° East 506 582 35,000  Level Salt Lake Center
Thu 03:58:07 PM 41.8783 -108.6078 84° East 509 586 35,000  Level Salt Lake Center
Thu 03:59:09 PM 41.8906 -108.4261 85° East 511 588 35,000  Level Salt Lake Center
Thu 04:00:11 PM 41.9067 -108.2456 83° East 510 587 35,000  Level Salt Lake Center
Thu 04:01:13 PM 41.9194 -108.0311 85° East 514 592 35,000  Level Salt Lake Center
Thu 04:02:15 PM 41.9294 -107.8486 86° East 513 590 35,000  Level Salt Lake Center
Thu 04:03:17 PM 41.9433 -107.6350 85° East 513 590 35,000 305 Level Salt Lake Center
Thu 04:08:49 PM 42.0270 -106.5900 85° East 502 578 37,000 323 Climbing FlightAware ADS-B
Thu 04:09:29 PM 42.0380 -106.4850 82° East 502 578 37,000  Level FlightAware ADS-B
Thu 04:10:03 PM 42.0500 -106.3570 83° East 504 580 37,000  Level FlightAware ADS-B
Thu 04:10:43 PM 42.0620 -106.2310 83° East 505 581 37,000  Level FlightAware ADS-B
Thu 04:11:19 PM 42.0730 -106.1180 82° East 507 583 37,000  Level FlightAware ADS-B
Thu 04:11:53 PM 42.0820 -106.0170 83° East 506 582 37,000  Level FlightAware ADS-B
Thu 04:12:29 PM 42.0930 -105.9010 83° East 507 583 37,000  Level FlightAware ADS-B
Thu 04:13:18 PM 42.1070 -105.7620 82° East 507 583 37,000  Level FlightAware ADS-B
Thu 04:13:51 PM 42.1170 -105.6480 83° East 507 583 37,000  Level FlightAware ADS-B
Thu 04:14:29 PM 42.1270 -105.5470 82° East 507 583 37,000  Level FlightAware ADS-B
Thu 04:15:03 PM 42.1370 -105.4180 84° East 511 588 37,000  Level FlightAware ADS-B
Thu 04:15:35 PM 42.1460 -105.3170 83° East 511 588 37,000  Level FlightAware ADS-B
Thu 04:16:08 PM 42.1550 -105.2170 83° East 510 587 37,000  Level FlightAware ADS-B
Thu 04:16:31 PM 42.1621 -105.1400 83° East 512 589 37,000  Level FlightAware ADS-B
Thu 04:17:01 PM 42.1707 -105.0440 83° East 513 590 37,000  Level FlightAware ADS-B
Thu 04:17:32 PM 42.1791 -104.9490 83° East 515 593 37,000  Level FlightAware ADS-B
Thu 04:18:02 PM 42.1876 -104.8510 83° East 516 594 37,000  Level FlightAware ADS-B
Thu 04:18:36 PM 42.1968 -104.7440 83° East 516 594 37,000  Level FlightAware ADS-B
Thu 04:19:06 PM 42.2051 -104.6480 83° East 516 594 37,000  Level FlightAware ADS-B
Thu 04:19:36 PM 42.2132 -104.5520 83° East 516 594 37,000  Level FlightAware ADS-B
Thu 04:20:06 PM 42.2212 -104.4560 84° East 515 593 37,000  Level FlightAware ADS-B
Thu 04:20:37 PM 42.2292 -104.3590 84° East 515 593 37,000  Level FlightAware ADS-B
Thu 04:21:07 PM 42.2372 -104.2620 84° East 515 593 37,000  Level FlightAware ADS-B
Thu 04:21:42 PM 42.2461 -104.1510 84° East 514 592 37,000  Level FlightAware ADS-B
Thu 04:22:12 PM 42.2538 -104.0550 84° East 510 587 37,000  Level FlightAware ADS-B
Thu 04:22:42 PM 42.2613 -103.9610 84° East 507 583 37,000  Level FlightAware ADS-B
Thu 04:23:13 PM 42.2687 -103.8660 84° East 506 582 37,000  Level FlightAware ADS-B
Thu 04:23:43 PM 42.2760 -103.7710 84° East 508 585 37,000  Level FlightAware ADS-B
Thu 04:24:15 PM 42.2839 -103.6690 84° East 511 588 37,000  Level FlightAware ADS-B
Thu 04:24:45 PM 42.2911 -103.5740 84° East 512 589 37,000  Level FlightAware ADS-B
Thu 04:25:15 PM 42.2983 -103.4780 84° East 513 590 37,000  Level FlightAware ADS-B
Thu 04:25:48 PM 42.3059 -103.3750 84° East 513 590 37,000  Level FlightAware ADS-B
Thu 04:26:23 PM 42.3141 -103.2630 84° East 512 589 37,000  Level FlightAware ADS-B
Thu 04:26:53 PM 42.3210 -103.1670 84° East 512 589 37,000  Level FlightAware ADS-B
Thu 04:27:25 PM 42.3282 -103.0670 84° East 512 589 37,000  Level FlightAware ADS-B
Thu 04:28:02 PM 42.3365 -102.9480 85° East 513 590 37,000  Level FlightAware ADS-B
Thu 04:28:33 PM 42.3434 -102.8490 85° East 515 593 37,000  Level FlightAware ADS-B
Thu 04:29:10 PM 42.3514 -102.7330 85° East 516 594 37,000  Level FlightAware ADS-B
Thu 04:29:41 PM 42.3581 -102.6330 85° East 519 597 37,000  Level FlightAware ADS-B
Thu 04:30:25 PM 42.3676 -102.4910 85° East 521 600 37,000  Level FlightAware ADS-B
Thu 04:31:08 PM 42.3756 -102.3769 85° East 520 598 37,000  Level Denver Center
Thu 04:32:10 PM 42.3892 -102.1619 85° East 517 595 37,000  Level Denver Center
Thu 04:33:12 PM 42.4003 -101.9769 85° East 516 594 37,000  Level Denver Center
Thu 04:34:15 PM 42.4128 -101.7653 85° East 512 589 37,000  Level Denver Center
Thu 04:35:17 PM 42.4247 -101.5789 85° East 517 595 37,000  Level Denver Center
Thu 04:36:19 PM 42.4364 -101.3661 86° East 510 587 37,000  Level Denver Center
Thu 04:37:21 PM 42.4467 -101.1808 86° East 514 592 37,000  Level Denver Center
Thu 04:38:23 PM 42.4581 -100.9628 86° East 518 596 37,000  Level Denver Center
Thu 04:39:25 PM 42.4672 -100.7767 86° East 518 596 37,000  Level Denver Center
Thu 04:40:27 PM 42.4783 -100.5597 86° East 518 596 37,000  Level Denver Center
Thu 04:41:29 PM 42.4864 -100.3739 87° East 517 595 37,000  Level Denver Center
Thu 04:42:43 PM 42.4956 -100.1903 86° East 514 592 37,000  Level Denver Center
Thu 04:43:46 PM 42.5064 -99.9344 87° East 516 594 37,000  Level Denver Center
Thu 04:44:48 PM 42.5144 -99.7414 87° East 513 590 37,000  Level Denver Center
Thu 04:45:50 PM 42.5225 -99.5486 87° East 513 590 37,000  Level Denver Center
Thu 04:46:52 PM 42.5303 -99.3533 87° East 515 593 37,000  Level Denver Center
Thu 04:47:54 PM 42.5367 -99.1583 87° East 517 595 37,000  Level Denver Center
Thu 04:48:56 PM 42.5461 -98.9244 87° East 516 594 37,000  Level Denver Center
Thu 04:49:58 PM 42.5519 -98.7300 88° East 517 595 37,000  Level Denver Center
Thu 04:55:40 PM 42.5830 -97.6210 88° East 37,000  Level FlightAware ADS-B
Thu 04:56:25 PM 42.5860 -97.4740 88° East 517 595 37,000  Level FlightAware ADS-B
Thu 04:57:00 PM 42.5890 -97.3630 88° East 516 594 37,000  Level FlightAware ADS-B
Thu 04:57:40 PM 42.5910 -97.2490 89° East 516 594 37,000  Level FlightAware ADS-B
Thu 04:58:11 PM 42.5930 -97.1340 89° East 512 589 37,000  Level FlightAware ADS-B
Thu 04:58:46 PM 42.5950 -97.0170 89° East 512 589 37,000  Level FlightAware ADS-B
Thu 04:59:23 PM 42.5970 -96.9040 89° East 513 590 37,000  Level FlightAware ADS-B
Thu 04:59:58 PM 42.5990 -96.7870 89° East 513 590 37,000  Level FlightAware ADS-B
Thu 05:00:30 PM 42.6010 -96.6840 88° East 513 590 37,000  Level FlightAware ADS-B
Thu 05:01:19 PM 42.6030 -96.5300 89° East 512 589 37,000  Level FlightAware ADS-B
Thu 05:01:58 PM 42.6050 -96.4010 89° East 512 589 37,000  Level FlightAware ADS-B
Thu 05:02:32 PM 42.6060 -96.2920 89° East 511 588 37,000  Level FlightAware ADS-B
Thu 05:03:07 PM 42.6070 -96.1830 89° East 510 587 37,000  Level FlightAware ADS-B
Thu 05:03:40 PM 42.6080 -96.0760 89° East 510 587 37,000  Level FlightAware ADS-B
Thu 05:04:13 PM 42.6090 -95.9710 89° East 511 588 37,000  Level FlightAware ADS-B
Thu 05:04:53 PM 42.6100 -95.8420 89° East 511 588 37,000  Level FlightAware ADS-B
Thu 05:05:25 PM 42.6110 -95.7450 89° East 509 586 37,000  Level FlightAware ADS-B
Thu 05:05:59 PM 42.6110 -95.6330 90° East 506 582 37,000  Level FlightAware ADS-B
Thu 05:06:36 PM 42.6120 -95.5140 89° East 506 582 37,000  Level FlightAware ADS-B
Thu 05:07:09 PM 42.6130 -95.4120 89° East 506 582 37,000  Level FlightAware ADS-B
Thu 05:07:46 PM 42.6130 -95.2920 90° East 507 583 37,000  Level FlightAware ADS-B
Thu 05:08:19 PM 42.6130 -95.1900 90° East 508 585 37,000  Level FlightAware ADS-B
Thu 05:08:56 PM 42.6130 -95.0690 90° East 509 586 37,000  Level FlightAware ADS-B
Thu 05:09:33 PM 42.6130 -94.9560 90° East 510 587 37,000  Level FlightAware ADS-B
Thu 05:10:05 PM 42.6130 -94.8510 90° East 510 587 37,000  Level FlightAware ADS-B
Thu 05:10:40 PM 42.6130 -94.7380 90° East 510 587 37,000  Level FlightAware ADS-B
Thu 05:11:18 PM 42.6130 -94.6230 90° East 510 587 37,000  Level FlightAware ADS-B
Thu 05:11:49 PM 42.6120 -94.5200 91° East 510 587 37,000  Level FlightAware ADS-B
Thu 05:12:26 PM 42.6120 -94.4000 90° East 511 588 37,000  Level FlightAware ADS-B
Thu 05:13:02 PM 42.6130 -94.2850 89° East 509 586 37,000  Level FlightAware ADS-B
Thu 05:13:36 PM 42.6140 -94.1770 89° East 508 585 37,000  Level FlightAware ADS-B
Thu 05:14:11 PM 42.6130 -94.0680 91° East 506 582 37,000  Level FlightAware ADS-B
Thu 05:14:55 PM 42.6130 -93.9270 90° East 506 582 37,000  Level FlightAware ADS-B
Thu 05:15:26 PM 42.6140 -93.8280 89° East 506 582 37,000  Level FlightAware ADS-B
Thu 05:16:02 PM 42.6150 -93.7150 89° East 508 585 37,000  Level FlightAware ADS-B
Thu 05:16:40 PM 42.6150 -93.5910 90° East 510 587 37,000  Level FlightAware ADS-B
Thu 05:17:11 PM 42.6160 -93.4960 89° East 510 587 37,000  Level FlightAware ADS-B
Thu 05:17:49 PM 42.6160 -93.3730 90° East 511 588 37,000  Level FlightAware ADS-B
Thu 05:18:25 PM 42.6170 -93.2570 89° East 511 588 37,000  Level FlightAware ADS-B
Thu 05:19:05 PM 42.6170 -93.1300 90° East 512 589 37,000  Level FlightAware ADS-B
Thu 05:19:40 PM 42.6170 -93.0200 90° East 512 589 37,000  Level FlightAware ADS-B
Thu 05:20:16 PM 42.6160 -92.9030 91° East 512 589 37,000  Level FlightAware ADS-B
Thu 05:20:52 PM 42.6160 -92.7870 90° East 511 588 37,000  Level FlightAware ADS-B
Thu 05:21:27 PM 42.6160 -92.6750 90° East 511 588 37,000  Level FlightAware ADS-B
Thu 05:22:01 PM 42.6150 -92.5650 91° East 511 588 37,000  Level FlightAware ADS-B
Thu 05:22:38 PM 42.6140 -92.4520 91° East 512 589 37,000  Level FlightAware ADS-B
Thu 05:23:11 PM 42.6140 -92.3410 90° East 512 589 37,000  Level FlightAware ADS-B
Thu 05:23:47 PM 42.6130 -92.2250 91° East 512 589 37,000  Level FlightAware ADS-B
Thu 05:24:27 PM 42.6120 -92.1010 91° East 512 589 37,000  Level FlightAware ADS-B
Thu 05:25:03 PM 42.6110 -91.9840 91° East 512 589 37,000  Level FlightAware ADS-B
Thu 05:25:39 PM 42.6090 -91.8690 91° East 513 590 37,000  Level FlightAware ADS-B
Thu 05:26:13 PM 42.6080 -91.7630 91° East 513 590 37,000  Level FlightAware ADS-B
Thu 05:26:46 PM 42.6070 -91.6520 91° East 514 592 37,000  Level FlightAware ADS-B
Thu 05:27:22 PM 42.6050 -91.5350 91° East 515 593 37,000  Level FlightAware ADS-B
Thu 05:27:59 PM 42.6030 -91.4170 91° East 515 593 37,000  Level FlightAware ADS-B
Thu 05:28:35 PM 42.6020 -91.3000 91° East 516 594 37,000  Level FlightAware ADS-B
Thu 05:29:07 PM 42.6000 -91.2030 92° East 517 595 37,000  Level FlightAware ADS-B
Thu 05:29:43 PM 42.5980 -91.0880 91° East 518 596 37,000  Level FlightAware ADS-B
Thu 05:30:16 PM 42.5960 -90.9790 91° East 518 596 37,000  Level FlightAware ADS-B
Thu 05:30:55 PM 42.5930 -90.8610 92° East 515 593 37,000  Level FlightAware ADS-B
Thu 05:31:26 PM 42.5910 -90.7500 91° East 513 590 37,000  Level FlightAware ADS-B
Thu 05:32:03 PM 42.5890 -90.6300 91° East 511 588 37,000  Level FlightAware ADS-B
Thu 05:32:42 PM 42.5860 -90.5120 92° East 508 585 37,000  Level FlightAware ADS-B
Thu 05:33:18 PM 42.5830 -90.3920 92° East 506 582 37,000  Level FlightAware ADS-B
Thu 05:33:51 PM 42.5810 -90.2910 92° East 506 582 37,000  Level FlightAware ADS-B
Thu 05:34:28 PM 42.5780 -90.1720 92° East 506 582 37,000  Level FlightAware ADS-B
Thu 05:35:05 PM 42.5750 -90.0590 92° East 506 582 37,000  Level FlightAware ADS-B
Thu 05:35:32 PM 42.5720 -89.9690 93° East 507 583 37,000  Level FlightAware ADS-B
Thu 05:36:10 PM 42.5690 -89.8490 92° East 509 586 37,000  Level FlightAware ADS-B
Thu 05:36:42 PM 42.5660 -89.7450 92° East 510 587 37,000  Level FlightAware ADS-B
Thu 05:37:18 PM 42.5620 -89.6310 93° East 511 588 37,000  Level FlightAware ADS-B
Thu 05:37:56 PM 42.5590 -89.5170 92° East 512 589 37,000  Level FlightAware ADS-B
Thu 05:38:27 PM 42.5550 -89.4090 93° East 514 592 37,000  Level FlightAware ADS-B
Thu 05:39:04 PM 42.5510 -89.2920 93° East 513 590 37,000  Level FlightAware ADS-B
Thu 05:39:37 PM 42.5480 -89.1870 92° East 514 592 37,000  Level FlightAware ADS-B
Thu 05:40:14 PM 42.5430 -89.0670 93° East 515 593 37,000  Level FlightAware ADS-B
Thu 05:40:49 PM 42.5390 -88.9510 93° East 515 593 37,000  Level FlightAware ADS-B
Thu 05:41:21 PM 42.5350 -88.8490 93° East 516 594 37,000  Level FlightAware ADS-B
Thu 05:41:58 PM 42.5310 -88.7320 93° East 514 592 37,000  Level FlightAware ADS-B
Thu 05:42:35 PM 42.5260 -88.6150 93° East 513 590 37,000  Level FlightAware ADS-B
Thu 05:43:10 PM 42.5220 -88.5080 93° East 512 589 37,000  Level FlightAware ADS-B
Thu 05:43:41 PM 42.5180 -88.4050 93° East 512 589 37,000  Level FlightAware ADS-B
Thu 05:44:18 PM 42.5120 -88.2830 94° East 512 589 37,000  Level FlightAware ADS-B
Thu 05:44:54 PM 42.5070 -88.1680 93° East 513 590 37,000  Level FlightAware ADS-B
Thu 05:45:28 PM 42.5030 -88.0750 93° East 514 592 37,000  Level FlightAware ADS-B
Thu 05:46:04 PM 42.5000 -87.9440 92° East 516 594 37,000  Level FlightAware ADS-B
Thu 05:46:38 PM 42.5000 -87.8350 90° East 516 594 37,000  Level FlightAware ADS-B
Thu 05:47:12 PM 42.5000 -87.7230 90° East 516 594 37,000  Level FlightAware ADS-B
Thu 05:47:47 PM 42.4990 -87.6150 91° East 517 595 37,000  Level FlightAware ADS-B
Thu 05:48:29 PM 42.4990 -87.4810 90° East 518 596 37,000  Level FlightAware ADS-B
Thu 05:49:07 PM 42.4980 -87.3570 91° East 517 595 37,000  Level FlightAware ADS-B
Thu 05:49:39 PM 42.4980 -87.2510 90° East 516 594 37,000  Level FlightAware ADS-B
Thu 05:50:15 PM 42.4970 -87.1360 91° East 517 595 37,000  Level FlightAware ADS-B
Thu 05:50:51 PM 42.4960 -87.0180 91° East 517 595 37,000  Level FlightAware ADS-B
Thu 05:51:27 PM 42.4950 -86.9000 91° East 517 595 37,000  Level FlightAware ADS-B
Thu 05:51:59 PM 42.4940 -86.7990 91° East 518 596 37,000  Level FlightAware ADS-B
Thu 05:52:34 PM 42.4930 -86.6860 91° East 520 598 37,000  Level FlightAware ADS-B
Thu 05:53:11 PM 42.4910 -86.5640 91° East 522 601 37,000  Level FlightAware ADS-B
Thu 05:53:45 PM 42.4900 -86.4520 91° East 523 602 37,000  Level FlightAware ADS-B
Thu 05:54:23 PM 42.4880 -86.3270 91° East 524 603 37,000  Level FlightAware ADS-B
Thu 05:54:56 PM 42.4870 -86.2210 91° East 522 601 37,000  Level FlightAware ADS-B
Thu 05:55:33 PM 42.4850 -86.1000 91° East 522 601 37,000  Level FlightAware ADS-B
Thu 05:56:05 PM 42.4830 -85.9970 91° East 524 603 37,000  Level FlightAware ADS-B
Thu 05:56:41 PM 42.4810 -85.8780 91° East 527 606 37,000  Level FlightAware ADS-B
Thu 05:57:15 PM 42.4790 -85.7650 91° East 529 609 37,000  Level FlightAware ADS-B
Thu 05:57:51 PM 42.4770 -85.6480 91° East 527 606 37,000  Level FlightAware ADS-B
Thu 05:58:27 PM 42.4740 -85.5290 92° East 526 605 37,000  Level FlightAware ADS-B
Thu 05:59:03 PM 42.4720 -85.4090 91° East 528 608 37,000  Level FlightAware ADS-B
Thu 05:59:35 PM 42.4690 -85.3020 92° East 529 609 37,000  Level FlightAware ADS-B
Thu 06:00:11 PM 42.4660 -85.1840 92° East 531 611 37,000  Level FlightAware ADS-B
Thu 06:00:47 PM 42.4630 -85.0640 92° East 531 611 37,000  Level FlightAware ADS-B
Thu 06:01:23 PM 42.4600 -84.9460 92° East 533 613 37,000  Level FlightAware ADS-B
Thu 06:01:56 PM 42.4570 -84.8380 92° East 534 615 37,000  Level FlightAware ADS-B
Thu 06:02:27 PM 42.4510 -84.7360 95° East 535 616 37,000  Level FlightAware ADS-B
Thu 06:02:57 PM 42.4450 -84.6360 95° East 535 616 37,000  Level FlightAware ADS-B
Thu 06:03:37 PM 42.4370 -84.4990 94° East 534 615 37,000  Level FlightAware ADS-B
Thu 06:04:13 PM 42.4300 -84.3790 94° East 533 613 37,000  Level FlightAware ADS-B
Thu 06:04:45 PM 42.4240 -84.2760 94° East 533 613 37,000  Level FlightAware ADS-B
Thu 06:05:19 PM 42.4180 -84.1640 94° East 531 611 37,000  Level FlightAware ADS-B
Thu 06:05:56 PM 42.4100 -84.0370 95° East 531 611 37,000  Level FlightAware ADS-B
Thu 06:06:32 PM 42.4030 -83.9230 95° East 531 611 37,000  Level FlightAware ADS-B
Thu 06:07:08 PM 42.3960 -83.8000 94° East 532 612 37,000  Level FlightAware ADS-B
Thu 06:07:42 PM 42.3890 -83.6910 95° East 534 615 37,000  Level FlightAware ADS-B
Thu 06:08:16 PM 42.3810 -83.5730 95° East 537 618 37,000  Level FlightAware ADS-B
Thu 06:08:50 PM 42.3740 -83.4600 95° East 537 618 37,000  Level FlightAware ADS-B
Thu 06:09:26 PM 42.3660 -83.3410 95° East 536 617 37,000  Level FlightAware ADS-B
Thu 06:10:02 PM 42.3580 -83.2230 95° East 534 615 37,000  Level FlightAware ADS-B
Thu 06:10:32 PM 42.3510 -83.1240 95° East 534 615 37,000  Level FlightAware ADS-B
Thu 06:11:06 PM 42.3440 -83.0210 95° East 533 613 37,000  Level FlightAware ADS-B
Thu 06:11:38 PM 42.3360 -82.9030 95° East 533 613 37,000  Level FlightAware ADS-B
Thu 06:12:16 PM 42.3270 -82.7790 96° East 535 616 37,000  Level FlightAware ADS-B
Thu 06:12:48 PM 42.3190 -82.6720 96° East 537 618 37,000  Level FlightAware ADS-B
Thu 06:13:22 PM 42.3110 -82.5590 95° East 536 617 37,000  Level FlightAware ADS-B
Thu 06:14:00 PM 42.3010 -82.4310 96° East 536 617 37,000  Level FlightAware ADS-B
Thu 06:14:32 PM 42.2930 -82.3260 96° East 536 617 37,000  Level FlightAware ADS-B
Thu 06:15:08 PM 42.2840 -82.2050 96° East 535 616 37,000  Level FlightAware ADS-B
Thu 06:15:42 PM 42.2760 -82.0960 96° East 533 613 37,000  Level FlightAware ADS-B
Thu 06:16:20 PM 42.2660 -81.9700 96° East 532 612 37,000  Level FlightAware ADS-B
Thu 06:16:59 PM 42.2570 -81.8620 96° East 533 613 37,000  Level FlightAware ADS-B
Thu 06:17:29 PM 42.2500 -81.7640 95° East 536 617 37,000  Level FlightAware ADS-B
Thu 06:18:12 PM 42.2370 -81.6090 96° East 538 619 37,000  Level FlightAware ADS-B
Thu 06:18:48 PM 42.2280 -81.4990 96° East 535 616 37,000  Level FlightAware ADS-B
Thu 06:19:18 PM 42.2190 -81.3990 97° East 533 613 37,000  Level FlightAware ADS-B
Thu 06:19:54 PM 42.2090 -81.2740 96° East 531 611 37,000  Level FlightAware ADS-B
Thu 06:20:38 PM 42.1970 -81.1430 97° East 528 608 37,000  Level FlightAware ADS-B
Thu 06:21:13 PM 42.1870 -81.0250 96° East 529 609 37,000  Level FlightAware ADS-B
Thu 06:21:50 PM 42.1760 -80.9020 97° East 530 610 37,000  Level FlightAware ADS-B
Thu 06:22:26 PM 42.1660 -80.7870 97° East 529 609 37,000  Level FlightAware ADS-B
Thu 06:23:05 PM 42.1540 -80.6500 97° East 529 609 37,000  Level FlightAware ADS-B
Thu 06:23:41 PM 42.1440 -80.5440 97° East 531 611 37,000  Level FlightAware ADS-B
Thu 06:24:11 PM 42.1350 -80.4450 97° East 517 595 37,000  Level FlightAware ADS-B
Thu 06:24:45 PM 42.1250 -80.3370 97° East 509 586 37,000  Level FlightAware ADS-B
Thu 06:25:22 PM 42.1140 -80.2210 97° East 505 581 37,000  Level FlightAware ADS-B
Thu 06:25:58 PM 42.1030 -80.1010 97° East 504 580 37,000  Level FlightAware ADS-B
Thu 06:26:34 PM 42.0930 -79.9990 97° East 503 579 37,000  Level FlightAware ADS-B
Thu 06:27:09 PM 42.0810 -79.8780 98° East 503 579 37,000  Level FlightAware ADS-B
Thu 06:27:44 PM 42.0700 -79.7670 98° East 506 582 37,000  Level FlightAware ADS-B
Thu 06:28:19 PM 42.0560 -79.6530 99° East 507 583 37,000  Level FlightAware ADS-B
Thu 06:28:53 PM 42.0230 -79.5590 115° Southeast 505 581 37,000  Level FlightAware ADS-B
Thu 06:29:31 PM 41.9590 -79.4750 136° Southeast 494 568 37,000  Level FlightAware ADS-B
Thu 06:30:00 PM 41.9070 -79.4280 146° Southeast 492 566 37,000  Level FlightAware ADS-B
Thu 06:30:40 PM 41.8280 -79.3580 147° Southeast 493 567 37,000  Level FlightAware ADS-B
Thu 06:31:16 PM 41.7610 -79.2980 146° Southeast 496 571 37,000  Level FlightAware ADS-B
Thu 06:31:34 PM 41.7300 -79.2580 136° Southeast 500 575 37,000  Level FlightAware ADS-B
Thu 06:32:08 PM 41.6900 -79.1700 121° Southeast 501 577 37,000  Level FlightAware ADS-B
Thu 06:32:47 PM 41.6710 -79.0510 102° East 506 582 37,000  Level FlightAware ADS-B
Thu 06:33:23 PM 41.6710 -78.9360 90° East 507 583 37,000  Level FlightAware ADS-B
Thu 06:33:55 PM 41.6720 -78.8370 89° East 510 587 37,000  Level FlightAware ADS-B
Thu 06:34:33 PM 41.6740 -78.7160 89° East 512 589 37,000  Level FlightAware ADS-B
Thu 06:35:05 PM 41.6750 -78.6150 89° East 512 589 37,000  Level FlightAware ADS-B
Thu 06:35:41 PM 41.6760 -78.5020 89° East 513 590 37,000  Level FlightAware ADS-B
Thu 06:36:15 PM 41.6760 -78.3970 90° East 512 589 37,000  Level FlightAware ADS-B
Thu 06:36:51 PM 41.6770 -78.2820 89° East 512 589 37,000  Level FlightAware ADS-B
Thu 06:37:27 PM 41.6780 -78.1850 89° East 510 587 37,000  Level FlightAware ADS-B
Thu 06:38:02 PM 41.6780 -78.0710 90° East 507 583 37,000  Level FlightAware ADS-B
Thu 06:38:34 PM 41.6790 -77.9610 89° East 507 583 37,000  Level FlightAware ADS-B
Thu 06:39:11 PM 41.6790 -77.8450 90° East 507 583 37,000  Level FlightAware ADS-B
Thu 06:39:47 PM 41.6790 -77.7290 90° East 501 577 37,000  Level FlightAware ADS-B
Thu 06:40:19 PM 41.6800 -77.6320 89° East 497 572 37,000  Level FlightAware ADS-B
Thu 06:41:02 PM 41.6800 -77.5030 90° East 493 567 37,000  Level FlightAware ADS-B
Thu 06:41:35 PM 41.6800 -77.4020 90° East 494 568 37,000  Level FlightAware ADS-B
Thu 06:42:15 PM 41.6790 -77.2790 91° East 495 570 37,000  Level FlightAware ADS-B
Thu 06:42:48 PM 41.6770 -77.1780 91° East 496 571 37,000  Level FlightAware ADS-B
Thu 06:43:22 PM 41.6590 -77.0780 104° East 499 574 37,000  Level FlightAware ADS-B
Thu 06:43:56 PM 41.6330 -76.9800 110° East 504 580 37,000  Level FlightAware ADS-B
Thu 06:44:32 PM 41.6070 -76.8830 110° East 504 580 37,000  Level FlightAware ADS-B
Thu 06:44:58 PM 41.5822 -76.7948 111° Southeast 503 579 37,000  Level FlightAware ADS-B
Thu 06:45:37 PM 41.5511 -76.6824 110° East 505 581 37,000  Level FlightAware ADS-B
Thu 06:46:08 PM 41.5261 -76.5923 110° East 505 581 37,000  Level FlightAware ADS-B
Thu 06:46:44 PM 41.4965 -76.4851 110° East 503 579 37,000  Level FlightAware ADS-B
Thu 06:47:16 PM 41.4714 -76.3948 110° East 499 574 37,000 -358 Level FlightAware ADS-B
Thu 06:47:51 PM 41.4431 -76.2934 110° East 496 571 36,600 -818 Descending FlightAware ADS-B
Thu 06:48:22 PM 41.4183 -76.2044 110° East 495 570 36,100 -1,200 Descending FlightAware ADS-B
Thu 06:48:56 PM 41.3919 -76.1096 110° East 494 568 35,300 -1,594 Descending FlightAware ADS-B
Thu 06:49:26 PM 41.3677 -76.0236 111° Southeast 493 567 34,400 -1,839 Descending FlightAware ADS-B
Thu 06:49:58 PM 41.3420 -75.9321 110° East 498 573 33,400 -2,364 Descending FlightAware ADS-B
Thu 06:50:32 PM 41.3147 -75.8359 111° Southeast 501 577 31,800 -3,046 Descending FlightAware ADS-B
Thu 06:51:03 PM 41.2892 -75.7465 111° Southeast 501 577 30,100 -3,429 Descending FlightAware ADS-B
Thu 06:51:35 PM 41.2609 -75.6539 112° Southeast 503 579 28,200 -3,046 Descending FlightAware ADS-B
Thu 06:52:08 PM 41.2307 -75.5623 114° Southeast 493 567 26,800 -2,571 Descending FlightAware ADS-B
Thu 06:52:38 PM 41.2032 -75.4802 114° Southeast 484 557 25,500 -2,600 Descending FlightAware ADS-B
Thu 06:53:08 PM 41.1760 -75.3993 114° Southeast 476 548 24,200 -2,400 Descending FlightAware ADS-B
Thu 06:53:38 PM 41.1490 -75.3193 114° Southeast 478 550 23,100 -1,180 Descending FlightAware ADS-B
Thu 06:54:09 PM 41.1216 -75.2382 114° Southeast 478 550 23,000 -94 Descending FlightAware ADS-B
Thu 06:54:42 PM 41.0917 -75.1499 114° Southeast 479 551 23,000 -95 Level FlightAware ADS-B
Thu 06:55:12 PM 41.0645 -75.0699 114° Southeast 474 545 22,900 -677 Descending FlightAware ADS-B
Thu 06:55:44 PM 41.0360 -74.9863 114° Southeast 470 541 22,300 -1,180 Descending FlightAware ADS-B
Thu 06:56:13 PM 41.0101 -74.9086 114° Southeast 469 540 21,700 -1,469 Descending FlightAware ADS-B
Thu 06:56:33 PM 40.9972 -74.8561 108° East 473 544 21,100 -1,050 Descending FlightAware ADS-B
Thu 06:56:53 PM 40.9883 -74.7975 101° East 471 542 21,000 -118 Descending FlightAware ADS-B
Thu 06:57:24 PM 40.9790 -74.7120 98° East 464 534 21,000 -290 Level FlightAware ADS-B
Thu 06:57:55 PM 40.9693 -74.6243 98° East 465 535 20,700 -689 Descending FlightAware ADS-B
Thu 06:58:25 PM 40.9601 -74.5397 98° East 459 528 20,300 -909 Descending FlightAware ADS-B
Thu 06:59:01 PM 40.9493 -74.4419 98° East 457 526 19,700 -896 Descending FlightAware ADS-B
Thu 06:59:32 PM 40.9398 -74.3563 98° East 455 524 19,300 -667 Descending FlightAware ADS-B
Thu 07:00:04 PM 40.9298 -74.2679 98° East 448 516 19,000 -375 Descending FlightAware ADS-B
Thu 07:00:20 PM 40.9223 -74.2278 104° East 428 493 19,000  Level FlightAware ADS-B
Thu 07:00:37 PM 40.9088 -74.1882 114° Southeast 407 468 19,000  Level FlightAware ADS-B
Thu 07:00:40 PM 40.9050 -74.1799 121° Southeast 400 460 19,000  Level FlightAware ADS-B
Thu 07:00:49 PM 40.8964 -74.1641 126° Southeast 389 448 19,000 -176 Level FlightAware ADS-B
Thu 07:01:14 PM 40.8669 -74.1226 133° Southeast 394 453 18,900 -375 Descending FlightAware ADS-B
Thu 07:01:21 PM 40.8587 -74.1118 135° Southeast 359 413 18,800 -750 Descending FlightAware ADS-B
Thu 07:01:22 PM 40.8565 -74.1092 138° Southeast 357 411 18,800 -667 Level FlightAware ADS-B
Thu 07:01:30 PM 40.8471 -74.0988 140° Southeast 351 404 18,700 -800 Descending FlightAware ADS-B
Thu 07:01:37 PM 40.8371 -74.0904 148° Southeast 346 398 18,600 -1,500 Descending FlightAware ADS-B
Thu 07:01:38 PM 40.8357 -74.0894 152° Southeast 345 397 18,500 -1,091 Descending FlightAware ADS-B
Thu 07:01:48 PM 40.8220 -74.0818 157° South 339 390 18,400 -1,286 Descending FlightAware ADS-B
Thu 07:01:52 PM 40.8152 -74.0789 162° South 337 388 18,200 -1,800 Descending FlightAware ADS-B
Thu 07:02:18 PM 40.7771 -74.0650 165° South 335 386 17,500 -1,548 Descending FlightAware ADS-B
Thu 07:02:23 PM 40.7689 -74.0621 165° South 335 386 17,400 -1,588 Descending FlightAware ADS-B
Thu 07:02:52 PM 40.7254 -74.0472 165° South 333 383 16,600 -1,600 Descending FlightAware ADS-B
Thu 07:03:08 PM 40.7027 -74.0395 166° South 332 382 16,200 -1,455 Descending FlightAware ADS-B
Thu 07:03:25 PM 40.6773 -74.0308 165° South 328 377 15,800 -1,532 Descending FlightAware ADS-B
Thu 07:03:55 PM 40.6336 -74.0159 165° South 325 374 15,000 -1,556 Descending FlightAware ADS-B
Thu 07:04:19 PM 40.5985 -74.0037 165° South 323 372 14,400 -1,455 Descending FlightAware ADS-B
Thu 07:04:28 PM 40.5856 -73.9992 165° South 321 369 14,200 -1,371 Descending FlightAware ADS-B
Thu 07:04:54 PM 40.5494 -73.9854 164° South 316 364 13,600 -1,355 Descending FlightAware ADS-B
Thu 07:04:59 PM 40.5429 -73.9812 154° Southeast 316 364 13,500 -947 Descending FlightAware ADS-B
Thu 07:05:32 PM 40.5018 -73.9464 147° Southeast 317 365 13,000 -720 Descending FlightAware ADS-B
Thu 07:05:49 PM 40.4830 -73.9266 141° Southeast 318 366 12,900 -1,125 Descending FlightAware ADS-B
Thu 07:06:20 PM 40.4499 -73.8859 137° Southeast 314 361 12,100 -1,524 Descending FlightAware ADS-B
Thu 07:06:52 PM 40.4164 -73.8435 136° Southeast 306 352 11,300 -1,560 Descending FlightAware ADS-B
Thu 07:07:10 PM 40.3985 -73.8207 136° Southeast 303 349 10,800 -1,500 Descending FlightAware ADS-B
Thu 07:07:20 PM 40.3902 -73.8067 128° Southeast 302 348 10,600 -1,600 Descending FlightAware ADS-B
Thu 07:07:40 PM 40.3764 -73.7739 119° Southeast 299 344 10,000 -2,077 Descending FlightAware ADS-B
Thu 07:08:12 PM 40.3580 -73.7270 117° Southeast 296 341 8,800 -2,379 Descending FlightAware ADS-B
Thu 07:08:38 PM 40.3410 -73.6816 116° Southeast 297 342 7,700 -2,488 Descending FlightAware ADS-B
Thu 07:08:53 PM 40.3374 -73.6557 100° East 295 339 7,100 -2,077 Descending FlightAware ADS-B
Thu 07:09:30 PM 40.3490 -73.5990 75° East 279 321 5,900 -1,867 Descending FlightAware ADS-B
Thu 07:09:38 PM 40.3570 -73.5890 44° Northeast 271 312 5,700 -1,412 Descending FlightAware ADS-B
Thu 07:09:47 PM 40.3670 -73.5790 37° Northeast 260 299 5,500 -1,241 Descending FlightAware ADS-B
Thu 07:10:07 PM 40.3870 -73.5640 30° Northeast 246 283 5,100 -900 Descending FlightAware ADS-B
Thu 07:10:27 PM 40.4060 -73.5500 29° Northeast 235 270 4,900 -818 Descending FlightAware ADS-B
Thu 07:10:51 PM 40.4290 -73.5320 31° Northeast 231 266 4,500 -955 Descending FlightAware ADS-B
Thu 07:11:11 PM 40.4480 -73.5180 29° Northeast 229 264 4,200 -750 Descending FlightAware ADS-B
Thu 07:11:23 PM 40.4580 -73.5090 34° Northeast 230 265 4,100 -333 Descending FlightAware ADS-B
Thu 07:11:47 PM 40.4800 -73.4930 29° Northeast 228 262 4,000 -136 Descending FlightAware ADS-B
Thu 07:12:07 PM 40.4990 -73.4780 31° Northeast 228 262 4,000  Level FlightAware ADS-B
Thu 07:12:27 PM 40.5170 -73.4640 31° Northeast 228 262 4,000  Level FlightAware ADS-B
Thu 07:12:47 PM 40.5360 -73.4500 29° Northeast 229 264 4,000  Level FlightAware ADS-B
Thu 07:12:56 PM 40.5444 -73.4436 30° Northeast 229 264 4,000  Level FlightAware ADS-B
Thu 07:13:31 PM 40.5750 -73.4200 30° Northeast 229 264 4,000  Level FlightAware ADS-B
Thu 07:13:51 PM 40.5950 -73.4100 21° North 223 257 4,000  Level FlightAware ADS-B
Thu 07:13:59 PM 40.6040 -73.4090 North 223 257 4,000  Level FlightAware ADS-B
Thu 07:14:13 PM 40.6180 -73.4090 360° North 224 258 4,000  Level FlightAware ADS-B
Thu 07:14:39 PM 40.6460 -73.4090 360° North 224 258 4,000  Level FlightAware ADS-B
Thu 07:15:03 PM 40.6700 -73.4090 360° North 223 257 4,000  Level FlightAware ADS-B
Thu 07:15:33 PM 40.7000 -73.4090 360° North 224 258 4,000  Level FlightAware ADS-B
Thu 07:15:53 PM 40.7210 -73.4090 360° North 217 250 4,000  Level FlightAware ADS-B
Thu 07:16:15 PM 40.7420 -73.4080 North 197 227 4,000  Level FlightAware ADS-B
Thu 07:16:51 PM 40.7720 -73.4130 353° North 184 212 4,000  Level FlightAware ADS-B
Thu 07:17:21 PM 40.7920 -73.4350 320° Northwest 185 213 4,000  Level FlightAware ADS-B
Thu 07:17:39 PM 40.8040 -73.4480 321° Northwest 182 209 4,000  Level FlightAware ADS-B
Thu 07:18:01 PM 40.8170 -73.4640 317° Northwest 182 209 4,000 -261 Level FlightAware ADS-B
Thu 07:18:25 PM 40.8330 -73.4820 320° Northwest 177 204 3,800 -714 Descending FlightAware ADS-B
Thu 07:18:43 PM 40.8440 -73.4950 318° Northwest 177 204 3,500 -900 Descending FlightAware ADS-B
Thu 07:19:05 PM 40.8580 -73.5110 319° Northwest 174 200 3,200 -818 Descending FlightAware ADS-B
Thu 07:19:27 PM 40.8670 -73.5280 305° West 166 191 2,900 -840 Descending FlightAware ADS-B
Thu 07:19:55 PM 40.8580 -73.5550 246° West 166 191 2,500 -878 Descending FlightAware ADS-B
Thu 07:20:08 PM 40.8520 -73.5640 229° Southwest 165 190 2,300 -769 Descending FlightAware ADS-B
Thu 07:20:34 PM 40.8400 -73.5860 234° Southwest 165 190 2,000 -391 Descending FlightAware ADS-B
Thu 07:20:54 PM 40.8300 -73.6020 230° Southwest 168 193 2,000  Level FlightAware ADS-B
Thu 07:21:14 PM 40.8190 -73.6170 226° Southwest 165 190 2,000  Level FlightAware ADS-B
Thu 07:21:26 PM 40.8120 -73.6250 221° Southwest 168 193 2,000  Level FlightAware ADS-B
Thu 07:21:34 PM 40.8080 -73.6290 217° Southwest 169 194 2,000  Level FlightAware ADS-B
Thu 07:21:54 PM 40.7950 -73.6390 210° Southwest 170 196 2,000  Level FlightAware ADS-B
Thu 07:22:14 PM 40.7800 -73.6500 209° Southwest 168 193 2,000  Level FlightAware ADS-B
Thu 07:22:28 PM 40.7710 -73.6570 210° Southwest 168 193 2,000  Level FlightAware ADS-B
Thu 07:22:52 PM 40.7550 -73.6690 210° Southwest 167 192 2,000  Level FlightAware ADS-B
Thu 07:23:12 PM 40.7410 -73.6800 211° Southwest 167 192 2,000  Level FlightAware ADS-B
Thu 07:23:24 PM 40.7330 -73.6860 210° Southwest 171 197 2,000 -563 Level FlightAware ADS-B
Thu 07:23:44 PM 40.7200 -73.6970 213° Southwest 170 196 1,700 -833 Descending FlightAware ADS-B
Thu 07:24:00 PM 40.7090 -73.7050 209° Southwest 159 183 1,500 -833 Descending FlightAware ADS-B
Thu 07:24:20 PM 40.6980 -73.7140 212° Southwest 139 160 1,200 -750 Descending FlightAware ADS-B
Thu 07:24:40 PM 40.6870 -73.7220 209° Southwest 130 150 1,000 -682 Descending FlightAware ADS-B
Thu 07:25:04 PM 40.6750 -73.7320 212° Southwest 129 148 700 -706 Descending FlightAware ADS-B
Thu 07:25:31 PM 40.6600 -73.7433 210° Southwest 135 155 400 -667 Descending FlightAware ADS-B
Thu 07:26:04 PM 40.6420 -73.7570 210° Southwest 133 153 -727 Descending FlightAware ADS-B

Login

Don't have an account? Register now (free) for customized features, flight alerts, and more!